EKAH

Aarhus Airport

Aarhus, Denmark
METAR EKAH 201250Z AUTO 18004KT 120V220 9999NDV OVC007/// 02/02 Q1001
Observed Flight Rules
Jan-20 @ 12:50 UTC (19 minutes ago)
Wind Clouds
180° at 4 knots
  • Overcast at 700' AGL
Temperatures Readings
Current 2°C / 36°F
Dewpoint 2°C / 36°F
Humidity 100%
Altimeter 29.56" Hg
Pressure 1001 hPa
Elevation 25
METAR EKAH 201250Z AUTO 18004KT 120V220 9999NDV OVC007/// 02/02 Q1001
Observed Flight Rules
Jan-20 @ 12:50 UTC
(19 minutes ago)
Wind
180° at 4 knots
Clouds
  • Overcast at 700' AGL
Temperature Dewpoint
2°C / 36°F 2°C / 36°F
Humidity Altimeter Pressure
100% 29.56" Hg 1001 hPa